TAF KISO
KISO 090529Z 0906/1006 00000KT 3/4SM BR SCT003 TEMPO 0906/0908 1/4SM FG BKN003 FM091000 VRB03KT 1SM BR FEW250 FM091200 04004KT P6SM FEW250 FM091700 07005KT P6SM SCT250 AMD LTD TO CLD VIS AND WIND=
METAR KISO
WC KISO
WS KISO
WV KISO